sensor_id;sensor_type;location;lat;lon;timestamp;P1;durP1;ratioP1;P2;durP2;ratioP2
48367;SDS011;34173;47.446;18.912;2022-08-27T00:01:42;12.98;;;5.50;;
48367;SDS011;34173;47.446;18.912;2022-08-27T00:04:11;12.27;;;5.12;;
48367;SDS011;34173;47.446;18.912;2022-08-27T00:06:38;11.68;;;4.75;;
48367;SDS011;34173;47.446;18.912;2022-08-27T00:09:07;11.10;;;4.80;;
48367;SDS011;34173;47.446;18.912;2022-08-27T00:11:35;11.88;;;4.93;;
48367;SDS011;34173;47.446;18.912;2022-08-27T00:14:02;15.82;;;5.18;;
48367;SDS011;34173;47.446;18.912;2022-08-27T00:16:30;9.68;;;4.90;;
48367;SDS011;34173;47.446;18.912;2022-08-27T00:18:58;10.57;;;4.93;;
48367;SDS011;34173;47.446;18.912;2022-08-27T00:21:26;10.55;;;4.97;;
48367;SDS011;34173;47.446;18.912;2022-08-27T00:23:54;10.77;;;4.70;;
48367;SDS011;34173;47.446;18.912;2022-08-27T00:26:21;11.52;;;4.75;;
48367;SDS011;34173;47.446;18.912;2022-08-27T00:28:49;11.57;;;5.30;;
48367;SDS011;34173;47.446;18.912;2022-08-27T00:31:17;12.82;;;5.00;;
48367;SDS011;34173;47.446;18.912;2022-08-27T00:33:49;11.23;;;5.35;;
48367;SDS011;34173;47.446;18.912;2022-08-27T00:36:17;10.60;;;5.32;;
48367;SDS011;34173;47.446;18.912;2022-08-27T00:38:45;10.98;;;5.37;;
48367;SDS011;34173;47.446;18.912;2022-08-27T00:41:12;11.20;;;4.78;;
48367;SDS011;34173;47.446;18.912;2022-08-27T00:43:48;11.18;;;5.30;;
48367;SDS011;34173;47.446;18.912;2022-08-27T00:46:18;11.90;;;4.80;;
48367;SDS011;34173;47.446;18.912;2022-08-27T00:48:52;11.07;;;4.50;;
48367;SDS011;34173;47.446;18.912;2022-08-27T00:51:21;12.70;;;4.78;;
48367;SDS011;34173;47.446;18.912;2022-08-27T00:53:50;10.18;;;4.82;;
48367;SDS011;34173;47.446;18.912;2022-08-27T00:56:20;12.57;;;4.80;;
48367;SDS011;34173;47.446;18.912;2022-08-27T00:58:50;11.32;;;4.55;;
48367;SDS011;34173;47.446;18.912;2022-08-27T01:01:21;10.00;;;4.85;;
48367;SDS011;34173;47.446;18.912;2022-08-27T01:03:56;8.77;;;4.45;;
48367;SDS011;34173;47.446;18.912;2022-08-27T01:06:27;10.00;;;5.15;;
48367;SDS011;34173;47.446;18.912;2022-08-27T01:09:04;13.02;;;4.55;;
48367;SDS011;34173;47.446;18.912;2022-08-27T01:11:36;12.77;;;4.95;;
48367;SDS011;34173;47.446;18.912;2022-08-27T01:14:05;8.65;;;4.57;;
48367;SDS011;34173;47.446;18.912;2022-08-27T01:16:37;11.77;;;4.47;;
48367;SDS011;34173;47.446;18.912;2022-08-27T01:19:07;13.43;;;4.37;;
48367;SDS011;34173;47.446;18.912;2022-08-27T01:21:44;11.90;;;4.82;;
48367;SDS011;34173;47.446;18.912;2022-08-27T01:27:02;15.15;;;4.60;;
48367;SDS011;34173;47.446;18.912;2022-08-27T01:29:34;12.30;;;5.25;;
48367;SDS011;34173;47.446;18.912;2022-08-27T01:32:07;13.62;;;4.32;;
48367;SDS011;34173;47.446;18.912;2022-08-27T01:37:06;12.35;;;4.53;;
48367;SDS011;34173;47.446;18.912;2022-08-27T01:39:34;9.13;;;4.78;;
48367;SDS011;34173;47.446;18.912;2022-08-27T01:42:07;11.00;;;4.97;;
48367;SDS011;34173;47.446;18.912;2022-08-27T01:44:41;9.15;;;4.43;;
48367;SDS011;34173;47.446;18.912;2022-08-27T01:47:14;9.15;;;4.93;;
48367;SDS011;34173;47.446;18.912;2022-08-27T01:49:43;10.10;;;4.47;;
48367;SDS011;34173;47.446;18.912;2022-08-27T01:52:11;8.50;;;4.50;;
48367;SDS011;34173;47.446;18.912;2022-08-27T01:54:40;11.75;;;4.47;;
48367;SDS011;34173;47.446;18.912;2022-08-27T01:57:08;12.65;;;5.45;;
48367;SDS011;34173;47.446;18.912;2022-08-27T01:59:36;10.55;;;4.65;;
48367;SDS011;34173;47.446;18.912;2022-08-27T02:02:07;6.93;;;4.80;;
48367;SDS011;34173;47.446;18.912;2022-08-27T02:04:35;11.20;;;4.80;;
48367;SDS011;34173;47.446;18.912;2022-08-27T02:07:03;9.20;;;4.60;;
48367;SDS011;34173;47.446;18.912;2022-08-27T02:09:31;8.93;;;4.47;;
48367;SDS011;34173;47.446;18.912;2022-08-27T02:11:59;10.43;;;5.07;;
48367;SDS011;34173;47.446;18.912;2022-08-27T02:14:27;9.95;;;4.87;;
48367;SDS011;34173;47.446;18.912;2022-08-27T02:16:55;10.52;;;4.43;;
48367;SDS011;34173;47.446;18.912;2022-08-27T02:19:23;17.55;;;5.30;;
48367;SDS011;34173;47.446;18.912;2022-08-27T02:21:51;10.32;;;4.20;;
48367;SDS011;34173;47.446;18.912;2022-08-27T02:24:19;12.00;;;4.68;;
48367;SDS011;34173;47.446;18.912;2022-08-27T02:26:47;13.38;;;4.62;;
48367;SDS011;34173;47.446;18.912;2022-08-27T02:29:15;12.10;;;5.03;;
48367;SDS011;34173;47.446;18.912;2022-08-27T02:31:42;10.55;;;4.70;;
48367;SDS011;34173;47.446;18.912;2022-08-27T02:34:10;11.73;;;4.57;;
48367;SDS011;34173;47.446;18.912;2022-08-27T02:36:56;10.43;;;4.72;;
48367;SDS011;34173;47.446;18.912;2022-08-27T02:39:24;8.80;;;4.50;;
48367;SDS011;34173;47.446;18.912;2022-08-27T02:41:52;8.68;;;5.10;;
48367;SDS011;34173;47.446;18.912;2022-08-27T02:44:21;9.40;;;5.30;;
48367;SDS011;34173;47.446;18.912;2022-08-27T02:46:48;8.80;;;5.03;;
48367;SDS011;34173;47.446;18.912;2022-08-27T02:49:19;10.55;;;5.37;;
48367;SDS011;34173;47.446;18.912;2022-08-27T02:51:47;10.30;;;4.80;;
48367;SDS011;34173;47.446;18.912;2022-08-27T02:54:16;9.15;;;4.95;;
48367;SDS011;34173;47.446;18.912;2022-08-27T02:56:43;10.73;;;5.60;;
48367;SDS011;34173;47.446;18.912;2022-08-27T02:59:11;11.27;;;4.95;;
48367;SDS011;34173;47.446;18.912;2022-08-27T03:01:38;11.00;;;5.18;;
48367;SDS011;34173;47.446;18.912;2022-08-27T03:04:06;10.43;;;4.22;;
48367;SDS011;34173;47.446;18.912;2022-08-27T03:06:34;9.00;;;4.70;;
48367;SDS011;34173;47.446;18.912;2022-08-27T03:09:02;9.98;;;5.00;;
48367;SDS011;34173;47.446;18.912;2022-08-27T03:11:30;11.52;;;4.87;;
48367;SDS011;34173;47.446;18.912;2022-08-27T03:13:58;9.05;;;4.78;;
48367;SDS011;34173;47.446;18.912;2022-08-27T03:16:26;11.40;;;5.00;;
48367;SDS011;34173;47.446;18.912;2022-08-27T03:18:53;13.75;;;4.95;;
48367;SDS011;34173;47.446;18.912;2022-08-27T03:21:22;9.70;;;5.37;;
48367;SDS011;34173;47.446;18.912;2022-08-27T03:23:52;11.63;;;5.12;;
48367;SDS011;34173;47.446;18.912;2022-08-27T03:26:20;11.95;;;5.15;;
48367;SDS011;34173;47.446;18.912;2022-08-27T03:28:48;8.50;;;4.82;;
48367;SDS011;34173;47.446;18.912;2022-08-27T03:31:17;10.98;;;4.97;;
48367;SDS011;34173;47.446;18.912;2022-08-27T03:33:54;9.60;;;4.80;;
48367;SDS011;34173;47.446;18.912;2022-08-27T03:36:24;14.02;;;5.32;;
48367;SDS011;34173;47.446;18.912;2022-08-27T03:38:53;10.38;;;5.07;;
48367;SDS011;34173;47.446;18.912;2022-08-27T03:41:21;12.43;;;5.40;;
48367;SDS011;34173;47.446;18.912;2022-08-27T03:44:09;9.98;;;4.57;;
48367;SDS011;34173;47.446;18.912;2022-08-27T03:46:48;10.77;;;4.87;;
48367;SDS011;34173;47.446;18.912;2022-08-27T03:49:17;11.05;;;4.95;;
48367;SDS011;34173;47.446;18.912;2022-08-27T03:51:48;11.70;;;5.60;;
48367;SDS011;34173;47.446;18.912;2022-08-27T03:54:18;15.02;;;6.15;;
48367;SDS011;34173;47.446;18.912;2022-08-27T03:56:45;9.55;;;5.03;;
48367;SDS011;34173;47.446;18.912;2022-08-27T03:59:13;10.93;;;5.55;;
48367;SDS011;34173;47.446;18.912;2022-08-27T04:01:42;11.63;;;5.40;;
48367;SDS011;34173;47.446;18.912;2022-08-27T04:04:11;11.55;;;5.35;;
48367;SDS011;34173;47.446;18.912;2022-08-27T04:06:39;8.98;;;5.00;;
48367;SDS011;34173;47.446;18.912;2022-08-27T04:09:07;10.55;;;4.82;;
48367;SDS011;34173;47.446;18.912;2022-08-27T04:11:35;12.55;;;4.93;;
48367;SDS011;34173;47.446;18.912;2022-08-27T04:14:03;9.25;;;5.40;;
48367;SDS011;34173;47.446;18.912;2022-08-27T04:16:50;10.13;;;4.53;;
48367;SDS011;34173;47.446;18.912;2022-08-27T04:19:18;10.63;;;4.85;;
48367;SDS011;34173;47.446;18.912;2022-08-27T04:21:51;10.95;;;5.43;;
48367;SDS011;34173;47.446;18.912;2022-08-27T04:24:19;13.65;;;5.32;;
48367;SDS011;34173;47.446;18.912;2022-08-27T04:26:46;10.48;;;5.37;;
48367;SDS011;34173;47.446;18.912;2022-08-27T04:29:14;9.45;;;5.30;;
48367;SDS011;34173;47.446;18.912;2022-08-27T04:31:42;16.00;;;5.22;;
48367;SDS011;34173;47.446;18.912;2022-08-27T04:34:09;18.35;;;5.78;;
48367;SDS011;34173;47.446;18.912;2022-08-27T04:36:37;11.35;;;4.95;;
48367;SDS011;34173;47.446;18.912;2022-08-27T04:39:05;10.70;;;5.50;;
48367;SDS011;34173;47.446;18.912;2022-08-27T04:41:32;10.45;;;5.32;;
48367;SDS011;34173;47.446;18.912;2022-08-27T04:44:06;13.70;;;5.90;;
48367;SDS011;34173;47.446;18.912;2022-08-27T04:49:06;9.95;;;5.55;;
48367;SDS011;34173;47.446;18.912;2022-08-27T04:51:37;9.65;;;5.22;;
48367;SDS011;34173;47.446;18.912;2022-08-27T04:54:06;12.77;;;5.85;;
48367;SDS011;34173;47.446;18.912;2022-08-27T04:56:35;10.48;;;5.30;;
48367;SDS011;34173;47.446;18.912;2022-08-27T04:59:04;14.23;;;4.95;;
48367;SDS011;34173;47.446;18.912;2022-08-27T05:01:33;14.07;;;5.50;;
48367;SDS011;34173;47.446;18.912;2022-08-27T05:04:01;10.63;;;5.50;;
48367;SDS011;34173;47.446;18.912;2022-08-27T05:06:29;10.80;;;4.82;;
48367;SDS011;34173;47.446;18.912;2022-08-27T05:08:57;9.00;;;4.75;;
48367;SDS011;34173;47.446;18.912;2022-08-27T05:11:25;9.25;;;5.07;;
48367;SDS011;34173;47.446;18.912;2022-08-27T05:14:00;13.43;;;5.47;;
48367;SDS011;34173;47.446;18.912;2022-08-27T05:16:31;10.98;;;5.05;;
48367;SDS011;34173;47.446;18.912;2022-08-27T05:19:01;13.25;;;5.50;;
48367;SDS011;34173;47.446;18.912;2022-08-27T05:21:31;12.32;;;5.78;;
48367;SDS011;34173;47.446;18.912;2022-08-27T05:24:01;9.75;;;5.20;;
48367;SDS011;34173;47.446;18.912;2022-08-27T05:26:31;13.00;;;5.53;;
48367;SDS011;34173;47.446;18.912;2022-08-27T05:28:59;11.40;;;5.50;;
48367;SDS011;34173;47.446;18.912;2022-08-27T05:31:28;12.20;;;5.60;;
48367;SDS011;34173;47.446;18.912;2022-08-27T05:33:56;12.07;;;5.32;;
48367;SDS011;34173;47.446;18.912;2022-08-27T05:36:26;10.32;;;5.37;;
48367;SDS011;34173;47.446;18.912;2022-08-27T05:38:58;11.50;;;5.50;;
48367;SDS011;34173;47.446;18.912;2022-08-27T05:41:28;8.85;;;4.85;;
48367;SDS011;34173;47.446;18.912;2022-08-27T05:44:02;11.02;;;4.35;;
48367;SDS011;34173;47.446;18.912;2022-08-27T05:46:51;10.88;;;4.78;;
48367;SDS011;34173;47.446;18.912;2022-08-27T05:49:19;11.50;;;4.75;;
48367;SDS011;34173;47.446;18.912;2022-08-27T05:51:47;11.10;;;4.82;;
48367;SDS011;34173;47.446;18.912;2022-08-27T05:54:16;10.63;;;5.00;;
48367;SDS011;34173;47.446;18.912;2022-08-27T05:56:46;11.32;;;4.82;;
48367;SDS011;34173;47.446;18.912;2022-08-27T05:59:17;14.32;;;4.80;;
48367;SDS011;34173;47.446;18.912;2022-08-27T06:02:05;9.23;;;4.28;;
48367;SDS011;34173;47.446;18.912;2022-08-27T06:04:33;10.43;;;4.53;;
48367;SDS011;34173;47.446;18.912;2022-08-27T06:07:01;9.85;;;4.12;;
48367;SDS011;34173;47.446;18.912;2022-08-27T06:09:28;10.05;;;4.32;;
48367;SDS011;34173;47.446;18.912;2022-08-27T06:11:57;10.15;;;4.25;;
48367;SDS011;34173;47.446;18.912;2022-08-27T06:14:27;10.68;;;4.32;;
48367;SDS011;34173;47.446;18.912;2022-08-27T06:16:58;13.60;;;4.80;;
48367;SDS011;34173;47.446;18.912;2022-08-27T06:19:26;7.55;;;3.80;;
48367;SDS011;34173;47.446;18.912;2022-08-27T06:21:53;9.88;;;4.20;;
48367;SDS011;34173;47.446;18.912;2022-08-27T06:24:36;8.75;;;3.70;;
48367;SDS011;34173;47.446;18.912;2022-08-27T06:27:08;10.65;;;4.10;;
48367;SDS011;34173;47.446;18.912;2022-08-27T06:29:39;8.30;;;4.40;;
48367;SDS011;34173;47.446;18.912;2022-08-27T06:32:07;9.93;;;4.12;;
48367;SDS011;34173;47.446;18.912;2022-08-27T06:34:35;10.15;;;4.30;;
48367;SDS011;34173;47.446;18.912;2022-08-27T06:37:04;10.90;;;4.35;;
48367;SDS011;34173;47.446;18.912;2022-08-27T06:39:32;12.05;;;4.22;;
48367;SDS011;34173;47.446;18.912;2022-08-27T06:41:59;11.20;;;4.00;;
48367;SDS011;34173;47.446;18.912;2022-08-27T06:44:31;10.68;;;4.25;;
48367;SDS011;34173;47.446;18.912;2022-08-27T06:46:58;12.32;;;3.90;;
48367;SDS011;34173;47.446;18.912;2022-08-27T06:49:26;10.57;;;3.87;;
48367;SDS011;34173;47.446;18.912;2022-08-27T06:51:54;8.00;;;3.70;;
48367;SDS011;34173;47.446;18.912;2022-08-27T06:54:21;11.63;;;4.15;;
48367;SDS011;34173;47.446;18.912;2022-08-27T06:56:49;9.52;;;3.80;;
48367;SDS011;34173;47.446;18.912;2022-08-27T06:59:17;8.27;;;4.25;;
48367;SDS011;34173;47.446;18.912;2022-08-27T07:01:46;9.45;;;4.35;;
48367;SDS011;34173;47.446;18.912;2022-08-27T07:04:20;13.93;;;4.62;;
48367;SDS011;34173;47.446;18.912;2022-08-27T07:06:57;8.75;;;4.00;;
48367;SDS011;34173;47.446;18.912;2022-08-27T07:09:25;9.45;;;4.50;;
48367;SDS011;34173;47.446;18.912;2022-08-27T07:11:53;8.05;;;4.12;;
48367;SDS011;34173;47.446;18.912;2022-08-27T07:14:21;10.77;;;4.50;;
48367;SDS011;34173;47.446;18.912;2022-08-27T07:16:49;7.85;;;3.87;;
48367;SDS011;34173;47.446;18.912;2022-08-27T07:19:19;19.08;;;4.85;;
48367;SDS011;34173;47.446;18.912;2022-08-27T07:21:48;11.18;;;4.40;;
48367;SDS011;34173;47.446;18.912;2022-08-27T07:24:16;13.10;;;4.43;;
48367;SDS011;34173;47.446;18.912;2022-08-27T07:26:45;8.77;;;4.00;;
48367;SDS011;34173;47.446;18.912;2022-08-27T07:29:14;11.10;;;4.30;;
48367;SDS011;34173;47.446;18.912;2022-08-27T07:31:42;10.20;;;3.85;;
48367;SDS011;34173;47.446;18.912;2022-08-27T07:34:09;11.32;;;4.12;;
48367;SDS011;34173;47.446;18.912;2022-08-27T07:36:37;6.60;;;3.90;;
48367;SDS011;34173;47.446;18.912;2022-08-27T07:39:06;8.43;;;3.97;;
48367;SDS011;34173;47.446;18.912;2022-08-27T07:41:34;9.80;;;3.83;;
48367;SDS011;34173;47.446;18.912;2022-08-27T07:44:24;9.20;;;3.72;;
48367;SDS011;34173;47.446;18.912;2022-08-27T07:47:00;8.20;;;3.22;;
48367;SDS011;34173;47.446;18.912;2022-08-27T07:49:29;12.13;;;3.97;;
48367;SDS011;34173;47.446;18.912;2022-08-27T07:51:57;10.45;;;3.58;;
48367;SDS011;34173;47.446;18.912;2022-08-27T07:54:25;13.50;;;3.92;;
48367;SDS011;34173;47.446;18.912;2022-08-27T07:56:53;8.20;;;4.30;;
48367;SDS011;34173;47.446;18.912;2022-08-27T07:59:22;8.40;;;3.85;;
48367;SDS011;34173;47.446;18.912;2022-08-27T08:01:52;8.00;;;3.35;;
48367;SDS011;34173;47.446;18.912;2022-08-27T08:04:22;11.12;;;3.53;;
48367;SDS011;34173;47.446;18.912;2022-08-27T08:06:52;9.70;;;3.58;;
48367;SDS011;34173;47.446;18.912;2022-08-27T08:09:21;7.93;;;3.33;;
48367;SDS011;34173;47.446;18.912;2022-08-27T08:11:50;9.57;;;3.40;;
48367;SDS011;34173;47.446;18.912;2022-08-27T08:14:18;9.75;;;4.37;;
48367;SDS011;34173;47.446;18.912;2022-08-27T08:16:46;10.60;;;3.58;;
48367;SDS011;34173;47.446;18.912;2022-08-27T08:19:14;12.05;;;3.45;;
48367;SDS011;34173;47.446;18.912;2022-08-27T08:21:41;7.55;;;3.12;;
48367;SDS011;34173;47.446;18.912;2022-08-27T08:24:09;7.62;;;3.12;;
48367;SDS011;34173;47.446;18.912;2022-08-27T08:26:37;7.85;;;3.40;;
48367;SDS011;34173;47.446;18.912;2022-08-27T08:29:06;9.05;;;3.30;;
48367;SDS011;34173;47.446;18.912;2022-08-27T08:31:41;11.02;;;3.15;;
48367;SDS011;34173;47.446;18.912;2022-08-27T08:34:12;6.97;;;3.00;;
48367;SDS011;34173;47.446;18.912;2022-08-27T08:36:44;11.35;;;3.80;;
48367;SDS011;34173;47.446;18.912;2022-08-27T08:39:20;8.65;;;3.67;;
48367;SDS011;34173;47.446;18.912;2022-08-27T08:41:50;10.15;;;4.12;;
48367;SDS011;34173;47.446;18.912;2022-08-27T08:46:54;10.02;;;3.97;;
48367;SDS011;34173;47.446;18.912;2022-08-27T09:00:37;8.00;;;3.30;;
48367;SDS011;34173;47.446;18.912;2022-08-27T09:03:05;13.57;;;3.58;;
48367;SDS011;34173;47.446;18.912;2022-08-27T09:05:34;13.10;;;4.03;;
48367;SDS011;34173;47.446;18.912;2022-08-27T09:08:10;10.40;;;3.62;;
48367;SDS011;34173;47.446;18.912;2022-08-27T09:18:54;11.02;;;3.65;;
48367;SDS011;34173;47.446;18.912;2022-08-27T09:24:13;9.48;;;3.72;;
48367;SDS011;34173;47.446;18.912;2022-08-27T09:26:58;11.90;;;3.28;;
48367;SDS011;34173;47.446;18.912;2022-08-27T09:29:27;8.30;;;3.60;;
48367;SDS011;34173;47.446;18.912;2022-08-27T09:31:59;11.23;;;3.22;;
48367;SDS011;34173;47.446;18.912;2022-08-27T09:34:41;8.00;;;3.22;;
48367;SDS011;34173;47.446;18.912;2022-08-27T09:37:13;8.30;;;3.60;;
48367;SDS011;34173;47.446;18.912;2022-08-27T09:39:46;8.60;;;3.42;;
48367;SDS011;34173;47.446;18.912;2022-08-27T09:42:24;11.43;;;3.25;;
48367;SDS011;34173;47.446;18.912;2022-08-27T09:44:54;7.53;;;3.17;;
48367;SDS011;34173;47.446;18.912;2022-08-27T09:47:22;8.80;;;3.15;;
48367;SDS011;34173;47.446;18.912;2022-08-27T09:50:06;9.25;;;3.40;;
48367;SDS011;34173;47.446;18.912;2022-08-27T09:52:46;10.77;;;2.95;;
48367;SDS011;34173;47.446;18.912;2022-08-27T09:55:37;10.90;;;3.30;;
48367;SDS011;34173;47.446;18.912;2022-08-27T09:58:54;11.18;;;3.12;;
48367;SDS011;34173;47.446;18.912;2022-08-27T10:01:24;7.25;;;3.20;;
48367;SDS011;34173;47.446;18.912;2022-08-27T10:04:03;9.07;;;2.95;;
48367;SDS011;34173;47.446;18.912;2022-08-27T10:06:31;6.78;;;2.50;;
48367;SDS011;34173;47.446;18.912;2022-08-27T10:09:08;9.90;;;3.20;;
48367;SDS011;34173;47.446;18.912;2022-08-27T10:12:10;7.18;;;2.80;;
48367;SDS011;34173;47.446;18.912;2022-08-27T10:14:41;12.80;;;2.70;;
48367;SDS011;34173;47.446;18.912;2022-08-27T10:22:37;8.10;;;2.55;;
48367;SDS011;34173;47.446;18.912;2022-08-27T10:28:19;10.85;;;2.65;;
48367;SDS011;34173;47.446;18.912;2022-08-27T10:31:27;7.07;;;2.30;;
48367;SDS011;34173;47.446;18.912;2022-08-27T10:39:09;9.25;;;2.53;;
48367;SDS011;34173;47.446;18.912;2022-08-27T10:41:52;5.53;;;2.20;;
48367;SDS011;34173;47.446;18.912;2022-08-27T10:52:37;8.50;;;2.55;;
48367;SDS011;34173;47.446;18.912;2022-08-27T10:55:52;9.30;;;2.53;;
48367;SDS011;34173;47.446;18.912;2022-08-27T11:01:05;10.43;;;2.70;;
48367;SDS011;34173;47.446;18.912;2022-08-27T11:04:08;9.30;;;3.17;;
48367;SDS011;34173;47.446;18.912;2022-08-27T11:06:42;13.20;;;2.90;;
48367;SDS011;34173;47.446;18.912;2022-08-27T11:09:13;10.10;;;2.75;;
48367;SDS011;34173;47.446;18.912;2022-08-27T11:11:48;7.30;;;2.97;;
48367;SDS011;34173;47.446;18.912;2022-08-27T11:14:40;5.97;;;2.90;;
48367;SDS011;34173;47.446;18.912;2022-08-27T11:23:06;8.52;;;3.42;;
48367;SDS011;34173;47.446;18.912;2022-08-27T11:25:48;5.60;;;2.92;;
48367;SDS011;34173;47.446;18.912;2022-08-27T11:28:21;6.50;;;2.75;;
48367;SDS011;34173;47.446;18.912;2022-08-27T11:30:59;9.45;;;3.00;;
48367;SDS011;34173;47.446;18.912;2022-08-27T11:33:52;11.38;;;3.08;;
48367;SDS011;34173;47.446;18.912;2022-08-27T11:39:37;7.90;;;3.20;;
48367;SDS011;34173;47.446;18.912;2022-08-27T11:45:18;11.02;;;3.42;;
48367;SDS011;34173;47.446;18.912;2022-08-27T11:48:32;11.43;;;2.80;;
48367;SDS011;34173;47.446;18.912;2022-08-27T11:50:55;6.45;;;2.80;;
48367;SDS011;34173;47.446;18.912;2022-08-27T11:53:56;7.50;;;3.40;;
48367;SDS011;34173;47.446;18.912;2022-08-27T11:59:07;9.75;;;3.15;;
48367;SDS011;34173;47.446;18.912;2022-08-27T12:01:46;11.35;;;3.00;;
48367;SDS011;34173;47.446;18.912;2022-08-27T12:04:23;7.30;;;2.90;;
48367;SDS011;34173;47.446;18.912;2022-08-27T12:07:00;9.63;;;2.85;;
48367;SDS011;34173;47.446;18.912;2022-08-27T12:16:01;8.48;;;3.03;;
48367;SDS011;34173;47.446;18.912;2022-08-27T12:18:50;10.35;;;3.28;;
48367;SDS011;34173;47.446;18.912;2022-08-27T12:27:13;8.77;;;3.15;;
48367;SDS011;34173;47.446;18.912;2022-08-27T12:32:28;9.35;;;3.15;;
48367;SDS011;34173;47.446;18.912;2022-08-27T12:35:03;12.00;;;3.80;;
48367;SDS011;34173;47.446;18.912;2022-08-27T12:40:58;11.20;;;3.47;;
48367;SDS011;34173;47.446;18.912;2022-08-27T12:45:40;7.37;;;3.30;;
48367;SDS011;34173;47.446;18.912;2022-08-27T12:48:10;16.77;;;3.83;;
48367;SDS011;34173;47.446;18.912;2022-08-27T12:50:38;11.55;;;4.05;;
48367;SDS011;34173;47.446;18.912;2022-08-27T12:56:29;7.90;;;3.28;;
48367;SDS011;34173;47.446;18.912;2022-08-27T13:03:54;13.75;;;3.60;;
48367;SDS011;34173;47.446;18.912;2022-08-27T13:08:54;8.10;;;3.10;;
48367;SDS011;34173;47.446;18.912;2022-08-27T13:11:27;8.93;;;3.10;;
48367;SDS011;34173;47.446;18.912;2022-08-27T13:14:04;11.00;;;3.53;;
48367;SDS011;34173;47.446;18.912;2022-08-27T13:16:36;9.77;;;3.50;;
48367;SDS011;34173;47.446;18.912;2022-08-27T13:19:06;8.45;;;3.70;;
48367;SDS011;34173;47.446;18.912;2022-08-27T13:21:44;9.27;;;3.42;;
48367;SDS011;34173;47.446;18.912;2022-08-27T13:24:17;11.25;;;3.60;;
48367;SDS011;34173;47.446;18.912;2022-08-27T13:26:48;7.47;;;2.95;;
48367;SDS011;34173;47.446;18.912;2022-08-27T13:29:19;7.30;;;3.22;;
48367;SDS011;34173;47.446;18.912;2022-08-27T13:31:47;12.60;;;3.75;;
48367;SDS011;34173;47.446;18.912;2022-08-27T13:34:19;7.97;;;3.40;;
48367;SDS011;34173;47.446;18.912;2022-08-27T13:39:28;9.93;;;3.42;;
48367;SDS011;34173;47.446;18.912;2022-08-27T13:41:57;8.65;;;3.35;;
48367;SDS011;34173;47.446;18.912;2022-08-27T13:44:29;8.02;;;3.30;;
48367;SDS011;34173;47.446;18.912;2022-08-27T13:47:02;9.70;;;3.28;;
48367;SDS011;34173;47.446;18.912;2022-08-27T13:49:33;10.67;;;4.03;;
48367;SDS011;34173;47.446;18.912;2022-08-27T13:54:58;8.57;;;3.05;;
48367;SDS011;34173;47.446;18.912;2022-08-27T13:57:39;13.00;;;3.08;;
48367;SDS011;34173;47.446;18.912;2022-08-27T14:02:46;10.13;;;3.47;;
48367;SDS011;34173;47.446;18.912;2022-08-27T14:07:51;8.77;;;2.85;;
48367;SDS011;34173;47.446;18.912;2022-08-27T14:10:35;10.30;;;3.00;;
48367;SDS011;34173;47.446;18.912;2022-08-27T14:15:35;11.43;;;3.15;;
48367;SDS011;34173;47.446;18.912;2022-08-27T14:18:06;7.72;;;3.20;;
48367;SDS011;34173;47.446;18.912;2022-08-27T14:21:03;8.00;;;3.12;;
48367;SDS011;34173;47.446;18.912;2022-08-27T14:23:30;14.13;;;3.62;;
48367;SDS011;34173;47.446;18.912;2022-08-27T14:25:59;11.30;;;2.83;;
48367;SDS011;34173;47.446;18.912;2022-08-27T14:28:27;7.40;;;2.83;;
48367;SDS011;34173;47.446;18.912;2022-08-27T14:30:55;9.98;;;3.30;;
48367;SDS011;34173;47.446;18.912;2022-08-27T14:33:22;9.52;;;3.72;;
48367;SDS011;34173;47.446;18.912;2022-08-27T14:35:50;10.48;;;2.90;;
48367;SDS011;34173;47.446;18.912;2022-08-27T14:38:19;10.73;;;2.87;;
48367;SDS011;34173;47.446;18.912;2022-08-27T14:40:50;8.38;;;3.42;;
48367;SDS011;34173;47.446;18.912;2022-08-27T14:43:20;9.38;;;3.40;;
48367;SDS011;34173;47.446;18.912;2022-08-27T14:45:49;15.07;;;3.60;;
48367;SDS011;34173;47.446;18.912;2022-08-27T14:48:21;9.55;;;3.10;;
48367;SDS011;34173;47.446;18.912;2022-08-27T14:50:57;10.43;;;3.08;;
48367;SDS011;34173;47.446;18.912;2022-08-27T14:53:25;8.68;;;2.85;;
48367;SDS011;34173;47.446;18.912;2022-08-27T14:55:53;8.00;;;2.90;;
48367;SDS011;34173;47.446;18.912;2022-08-27T14:58:25;8.02;;;3.65;;
48367;SDS011;34173;47.446;18.912;2022-08-27T15:00:52;9.88;;;3.08;;
48367;SDS011;34173;47.446;18.912;2022-08-27T15:03:22;10.55;;;2.95;;
48367;SDS011;34173;47.446;18.912;2022-08-27T15:05:52;11.25;;;3.12;;
48367;SDS011;34173;47.446;18.912;2022-08-27T15:08:22;11.23;;;3.28;;
48367;SDS011;34173;47.446;18.912;2022-08-27T15:10:56;8.70;;;2.90;;
48367;SDS011;34173;47.446;18.912;2022-08-27T15:13:24;12.88;;;3.55;;
48367;SDS011;34173;47.446;18.912;2022-08-27T15:15:51;8.65;;;3.10;;
48367;SDS011;34173;47.446;18.912;2022-08-27T15:18:19;7.90;;;2.97;;
48367;SDS011;34173;47.446;18.912;2022-08-27T15:20:47;10.00;;;3.17;;
48367;SDS011;34173;47.446;18.912;2022-08-27T15:23:14;13.27;;;3.40;;
48367;SDS011;34173;47.446;18.912;2022-08-27T15:25:43;8.70;;;3.25;;
48367;SDS011;34173;47.446;18.912;2022-08-27T15:28:12;14.75;;;3.62;;
48367;SDS011;34173;47.446;18.912;2022-08-27T15:30:39;11.55;;;3.75;;
48367;SDS011;34173;47.446;18.912;2022-08-27T15:33:07;8.88;;;2.75;;
48367;SDS011;34173;47.446;18.912;2022-08-27T15:35:35;12.43;;;3.47;;
48367;SDS011;34173;47.446;18.912;2022-08-27T15:38:03;10.18;;;3.20;;
48367;SDS011;34173;47.446;18.912;2022-08-27T15:40:32;13.02;;;3.10;;
48367;SDS011;34173;47.446;18.912;2022-08-27T15:43:02;10.20;;;3.40;;
48367;SDS011;34173;47.446;18.912;2022-08-27T15:45:31;12.55;;;3.30;;
48367;SDS011;34173;47.446;18.912;2022-08-27T15:47:59;9.65;;;2.90;;
48367;SDS011;34173;47.446;18.912;2022-08-27T15:50:27;15.00;;;3.08;;
48367;SDS011;34173;47.446;18.912;2022-08-27T15:52:59;14.27;;;3.30;;
48367;SDS011;34173;47.446;18.912;2022-08-27T15:55:29;6.70;;;3.08;;
48367;SDS011;34173;47.446;18.912;2022-08-27T15:57:59;10.10;;;3.20;;
48367;SDS011;34173;47.446;18.912;2022-08-27T16:00:27;16.08;;;3.37;;
48367;SDS011;34173;47.446;18.912;2022-08-27T16:02:55;9.25;;;3.65;;
48367;SDS011;34173;47.446;18.912;2022-08-27T16:05:23;14.48;;;3.28;;
48367;SDS011;34173;47.446;18.912;2022-08-27T16:07:52;10.30;;;3.00;;
48367;SDS011;34173;47.446;18.912;2022-08-27T16:10:20;10.57;;;3.62;;
48367;SDS011;34173;47.446;18.912;2022-08-27T16:12:48;13.60;;;3.50;;
48367;SDS011;34173;47.446;18.912;2022-08-27T16:15:16;13.32;;;3.85;;
48367;SDS011;34173;47.446;18.912;2022-08-27T16:17:44;10.13;;;3.33;;
48367;SDS011;34173;47.446;18.912;2022-08-27T16:20:12;14.75;;;3.33;;
48367;SDS011;34173;47.446;18.912;2022-08-27T16:22:41;17.60;;;4.15;;
48367;SDS011;34173;47.446;18.912;2022-08-27T16:25:13;12.23;;;3.80;;
48367;SDS011;34173;47.446;18.912;2022-08-27T16:27:46;11.15;;;4.00;;
48367;SDS011;34173;47.446;18.912;2022-08-27T16:30:14;12.37;;;4.75;;
48367;SDS011;34173;47.446;18.912;2022-08-27T16:32:43;10.23;;;3.97;;
48367;SDS011;34173;47.446;18.912;2022-08-27T16:35:13;12.52;;;3.78;;
48367;SDS011;34173;47.446;18.912;2022-08-27T16:37:42;9.88;;;3.80;;
48367;SDS011;34173;47.446;18.912;2022-08-27T16:40:11;16.87;;;3.87;;
48367;SDS011;34173;47.446;18.912;2022-08-27T16:42:43;10.23;;;4.35;;
48367;SDS011;34173;47.446;18.912;2022-08-27T16:45:13;9.32;;;3.70;;
48367;SDS011;34173;47.446;18.912;2022-08-27T16:47:42;12.35;;;3.83;;